createdAt,value
2022-09-05T00:01:17.649Z,20.7
2022-09-05T00:06:02.273Z,20.6
2022-09-05T00:11:41.754Z,20.5
2022-09-05T00:16:12.821Z,20.5
2022-09-05T00:24:27.972Z,20.4
2022-09-05T00:31:55.559Z,20.3
2022-09-05T00:36:29.420Z,20.2
2022-09-05T00:41:45.826Z,20.1
2022-09-05T00:46:52.248Z,20.0
2022-09-05T00:52:18.609Z,20.0
2022-09-05T00:57:04.956Z,19.9
2022-09-05T01:02:11.559Z,19.8
2022-09-05T01:07:17.863Z,19.7
2022-09-05T01:12:14.321Z,19.7
2022-09-05T01:17:20.707Z,19.6
2022-09-05T01:22:37.174Z,19.5
2022-09-05T01:29:13.419Z,19.5
2022-09-05T01:32:49.861Z,19.4
2022-09-05T01:37:56.235Z,19.3
2022-09-05T01:43:02.637Z,19.2
2022-09-05T01:48:29.171Z,19.2
2022-09-05T01:53:35.665Z,19.1
2022-09-05T01:58:22.574Z,19.0
2022-09-05T02:03:27.990Z,19.0
2022-09-05T02:08:35.331Z,18.9
2022-09-05T02:13:41.708Z,18.8
2022-09-05T02:19:12.298Z,18.8
2022-09-05T02:23:54.649Z,18.7
2022-09-05T02:29:01.181Z,18.6
2022-09-05T02:34:07.606Z,18.5
2022-09-05T02:45:00.884Z,18.4
2022-09-05T02:45:26.955Z,18.4
2022-09-05T02:51:53.606Z,18.4
2022-09-05T02:57:24.058Z,18.3
2022-09-05T03:00:20.584Z,18.2
2022-09-05T03:05:26.986Z,18.1
2022-09-05T03:10:53.235Z,18.1
2022-09-05T03:15:29.845Z,18.0
2022-09-05T03:21:30.353Z,17.9
2022-09-05T03:25:52.834Z,17.9
2022-09-05T03:30:59.240Z,17.8
2022-09-05T03:35:55.549Z,17.7
2022-09-05T03:41:11.956Z,17.7
2022-09-05T03:46:08.399Z,17.6
2022-09-05T03:57:12.367Z,17.6
2022-09-05T03:57:17.819Z,17.6
2022-09-05T04:06:36.139Z,17.5
2022-09-05T04:08:26.467Z,17.5
2022-09-05T04:11:50.362Z,17.5
2022-09-05T04:16:56.892Z,17.5
2022-09-05T04:22:03.241Z,17.5
2022-09-05T04:27:34.821Z,17.5
2022-09-05T04:32:18.794Z,17.4
2022-09-05T04:37:23.664Z,17.4
2022-09-05T04:42:20.020Z,17.5
2022-09-05T04:47:36.427Z,17.4
2022-09-05T04:55:03.046Z,17.4
2022-09-05T04:59:03.736Z,17.4
2022-09-05T05:06:10.259Z,17.4
2022-09-05T05:08:38.027Z,17.4
2022-09-05T05:18:03.358Z,17.3
2022-09-05T05:18:46.912Z,17.3
2022-09-05T05:23:21.383Z,17.3
2022-09-05T05:28:28.105Z,17.3
2022-09-05T05:33:34.315Z,17.2
2022-09-05T05:38:40.693Z,17.2
2022-09-05T05:43:47.082Z,17.2
2022-09-05T05:48:56.955Z,17.2
2022-09-05T05:53:59.938Z,17.2
2022-09-05T06:00:14.929Z,17.2
2022-09-05T06:06:16.982Z,17.2
2022-09-05T06:14:49.842Z,17.2
2022-09-05T06:15:13.189Z,17.2
2022-09-05T06:31:31.957Z,17.4
2022-09-05T06:36:15.017Z,17.4
2022-09-05T06:41:21.409Z,17.5
2022-09-05T06:47:21.941Z,17.6
2022-09-05T06:52:09.763Z,17.8
2022-09-05T06:57:21.644Z,18.0
2022-09-05T07:02:59.800Z,18.0
2022-09-05T07:07:35.418Z,18.2
2022-09-05T07:12:31.823Z,18.3
2022-09-05T07:18:12.278Z,18.4
2022-09-05T07:28:29.866Z,18.8
2022-09-05T07:33:07.452Z,19.0
2022-09-05T07:38:03.822Z,19.4
2022-09-05T07:43:10.719Z,20.2
2022-09-05T07:48:34.184Z,21.2
2022-09-05T07:56:55.403Z,22.3
2022-09-05T07:58:39.596Z,23.6
2022-09-05T08:03:36.097Z,24.7
2022-09-05T08:09:21.461Z,25.9
2022-09-05T08:19:05.293Z,27.9
2022-09-05T08:24:01.650Z,28.9
2022-09-05T08:29:19.710Z,29.9
2022-09-05T08:34:31.516Z,30.6
2022-09-05T08:39:32.540Z,31.3
2022-09-05T08:46:42.291Z,31.9
2022-09-05T08:52:39.694Z,32.9
2022-09-05T08:55:26.859Z,32.9
2022-09-05T09:00:33.273Z,33.4
2022-09-05T09:06:12.003Z,33.8
2022-09-05T09:10:45.946Z,34.1
2022-09-05T09:15:52.417Z,34.7
2022-09-05T09:26:05.091Z,35.8
2022-09-05T09:36:17.846Z,36.8
2022-09-05T09:48:36.917Z,38.3
2022-09-05T09:52:21.242Z,38.3
2022-09-05T09:57:42.542Z,38.8
2022-09-05T10:10:32.737Z,39.0
2022-09-05T10:10:45.728Z,39.3
2022-09-05T10:12:37.638Z,39.7
2022-09-05T10:19:08.175Z,39.9
2022-09-05T10:23:14.449Z,40.1
2022-09-05T10:28:16.812Z,40.3
2022-09-05T10:35:08.291Z,40.5
2022-09-05T10:38:43.739Z,41.0
2022-09-05T10:43:51.156Z,41.0
2022-09-05T10:48:57.507Z,40.0
2022-09-05T10:54:03.886Z,39.6
2022-09-05T11:01:33.395Z,39.2
2022-09-05T11:04:16.822Z,39.2
2022-09-05T11:09:23.140Z,38.7
2022-09-05T11:15:47.787Z,38.7
2022-09-05T11:19:25.893Z,39.9
2022-09-05T11:24:42.413Z,40.6
2022-09-05T11:29:48.812Z,41.1
2022-09-05T11:40:02.008Z,41.3
2022-09-05T11:41:11.645Z,41.6
2022-09-05T11:45:07.995Z,41.9
2022-09-05T11:50:09.137Z,42.1
2022-09-05T11:55:21.729Z,42.3
2022-09-05T12:00:33.453Z,42.5
2022-09-05T12:05:49.921Z,42.6
2022-09-05T12:11:04.119Z,42.7
2022-09-05T12:16:07.893Z,42.7
2022-09-05T12:20:43.668Z,42.6
2022-09-05T12:27:42.468Z,42.4
2022-09-05T12:32:36.584Z,42.4
2022-09-05T12:40:40.226Z,42.4
2022-09-05T12:41:43.994Z,42.2
2022-09-05T12:51:46.725Z,42.0
2022-09-05T13:02:02.812Z,41.8
2022-09-05T13:03:12.049Z,41.7
2022-09-05T13:06:50.533Z,41.7
2022-09-05T13:14:53.765Z,41.5
2022-09-05T13:27:16.013Z,41.4
2022-09-05T13:37:58.801Z,41.3
2022-09-05T13:38:19.615Z,41.3
2022-09-05T13:42:25.406Z,41.3
2022-09-05T13:48:01.852Z,41.3
2022-09-05T13:52:48.195Z,41.3
2022-09-05T13:58:14.603Z,41.2
2022-09-05T14:08:09.864Z,40.9
2022-09-05T14:13:37.287Z,40.7
2022-09-05T14:18:23.726Z,40.5
2022-09-05T14:23:30.002Z,40.2
2022-09-05T14:28:36.365Z,39.9
2022-09-05T14:37:44.744Z,39.6
2022-09-05T14:38:49.283Z,39.4
2022-09-05T14:43:46.096Z,39.1
2022-09-05T14:49:01.006Z,38.8
2022-09-05T14:54:08.699Z,38.5
2022-09-05T15:02:53.351Z,38.1
2022-09-05T15:12:15.620Z,37.4
2022-09-05T15:15:59.078Z,36.9
2022-09-05T15:19:40.524Z,36.6
2022-09-05T15:24:36.894Z,36.1
2022-09-05T15:29:53.409Z,35.7
2022-09-05T15:35:23.875Z,35.4
2022-09-05T15:40:07.665Z,35.1
2022-09-05T15:45:32.699Z,34.8
2022-09-05T15:50:22.434Z,34.5
2022-09-05T15:55:25.326Z,34.2
2022-09-05T16:00:31.702Z,34.0
2022-09-05T16:22:26.635Z,33.4
2022-09-05T16:23:32.900Z,33.2
2022-09-05T16:26:03.849Z,33.1
2022-09-05T16:31:10.253Z,32.9
2022-09-05T16:36:16.651Z,32.8
2022-09-05T16:41:24.572Z,32.6
2022-09-05T16:46:29.391Z,32.4
2022-09-05T16:51:36.339Z,32.2
2022-09-05T16:57:02.321Z,32.0
2022-09-05T17:01:48.998Z,31.8
2022-09-05T17:07:09.193Z,31.6
2022-09-05T17:12:25.625Z,31.5
2022-09-05T17:18:19.519Z,31.3
2022-09-05T17:24:37.119Z,31.1
2022-09-05T17:29:26.024Z,31.0
2022-09-05T17:32:27.127Z,30.8
2022-09-05T17:37:33.506Z,30.7
2022-09-05T17:42:39.880Z,30.5
2022-09-05T17:48:06.294Z,30.4
2022-09-05T17:52:42.631Z,30.2
2022-09-05T17:57:58.029Z,30.0
2022-09-05T18:04:16.020Z,29.8
2022-09-05T18:08:13.357Z,29.6
2022-09-05T18:23:39.685Z,29.0
2022-09-05T18:33:55.376Z,28.6
2022-09-05T18:39:05.801Z,28.4
2022-09-05T18:44:12.336Z,28.1
2022-09-05T18:54:16.346Z,27.7
2022-09-05T18:59:17.322Z,27.5
2022-09-05T19:09:50.094Z,27.1
2022-09-05T19:14:36.433Z,27.0
2022-09-05T19:19:42.822Z,26.8
2022-09-05T19:24:49.198Z,26.7
2022-09-05T19:36:59.598Z,26.5
2022-09-05T19:37:04.963Z,26.4
2022-09-05T19:47:26.472Z,26.2
2022-09-05T19:47:50.724Z,26.1
2022-09-05T19:50:21.096Z,26.0
2022-09-05T19:55:27.477Z,25.9
2022-09-05T20:00:34.024Z,25.7
2022-09-05T20:05:40.352Z,25.7
2022-09-05T20:10:36.710Z,25.5
2022-09-05T20:15:53.193Z,25.4
2022-09-05T20:20:59.501Z,25.3
2022-09-05T20:25:55.976Z,25.3
2022-09-05T20:31:32.657Z,25.2
2022-09-05T20:43:12.569Z,25.1
2022-09-05T20:43:26.645Z,25.0
2022-09-05T20:50:08.275Z,25.0
2022-09-05T20:54:17.182Z,24.9
2022-09-05T21:01:52.681Z,24.7
2022-09-05T21:03:46.742Z,24.8
2022-09-05T21:07:18.936Z,24.7
2022-09-05T21:13:08.461Z,24.6
2022-09-05T21:17:16.043Z,24.5
2022-09-05T21:22:45.195Z,24.5
2022-09-05T21:32:41.169Z,24.3
2022-09-05T21:47:20.341Z,24.2
2022-09-05T21:54:42.620Z,24.1
2022-09-05T21:59:20.006Z,24.0
2022-09-05T21:59:20.587Z,24.1
2022-09-05T22:03:18.797Z,24.0
2022-09-05T22:13:28.813Z,23.8
2022-09-05T22:19:03.275Z,23.8
2022-09-05T22:28:47.995Z,23.7
2022-09-05T22:33:54.395Z,23.6
2022-09-05T22:40:01.023Z,23.6
2022-09-05T22:46:55.521Z,23.5
2022-09-05T22:50:37.733Z,23.5
2022-09-05T22:54:39.990Z,23.4
2022-09-05T22:59:46.385Z,23.4
2022-09-05T23:04:32.807Z,23.3
2022-09-05T23:12:47.484Z,23.3
2022-09-05T23:15:45.702Z,23.2
2022-09-05T23:20:15.931Z,23.2
2022-09-05T23:25:01.424Z,23.1
2022-09-05T23:30:07.792Z,23.1
2022-09-05T23:35:14.191Z,23.0
2022-09-05T23:40:24.556Z,23.0
2022-09-05T23:45:26.927Z,22.9
2022-09-05T23:50:33.297Z,22.8
